createdAt,value
2019-04-01T00:00:18.068Z,99.60
2019-04-01T00:02:46.447Z,99.60
2019-04-01T00:05:14.859Z,99.50
2019-04-01T00:07:43.233Z,99.80
2019-04-01T00:10:11.633Z,99.60
2019-04-01T00:12:40.039Z,99.40
2019-04-01T00:15:08.407Z,99.40
2019-04-01T00:17:36.781Z,99.40
2019-04-01T00:20:06.211Z,99.50
2019-04-01T00:22:34.625Z,99.50
2019-04-01T00:25:03.070Z,99.40
2019-04-01T00:27:31.470Z,99.50
2019-04-01T00:29:59.853Z,99.60
2019-04-01T00:32:28.267Z,99.40
2019-04-01T00:34:56.647Z,99.60
2019-04-01T00:37:25.048Z,99.50
2019-04-01T00:39:53.614Z,99.70
2019-04-01T00:42:26.402Z,99.70
2019-04-01T00:44:54.778Z,99.80
2019-04-01T00:47:23.155Z,99.90
2019-04-01T00:49:51.560Z,99.90
2019-04-01T00:52:19.938Z,99.90
2019-04-01T00:54:48.310Z,99.90
2019-04-01T00:57:16.700Z,99.90
2019-04-01T00:59:45.106Z,99.90
2019-04-01T01:02:13.495Z,99.90
2019-04-01T01:04:41.894Z,99.90
2019-04-01T01:07:10.307Z,99.90
2019-04-01T01:09:38.681Z,99.90
2019-04-01T01:12:07.085Z,99.90
2019-04-01T01:14:35.468Z,99.90
2019-04-01T01:17:03.869Z,99.90
2019-04-01T01:19:32.227Z,99.90
2019-04-01T01:22:00.619Z,99.90
2019-04-01T01:24:32.369Z,99.90
2019-04-01T01:26:59.056Z,99.90
2019-04-01T01:29:27.425Z,99.90
2019-04-01T01:31:55.824Z,99.90
2019-04-01T01:34:24.230Z,99.90
2019-04-01T01:36:52.621Z,99.90
2019-04-01T01:39:21.001Z,99.90
2019-04-01T01:41:49.373Z,99.90
2019-04-01T01:44:17.769Z,99.90
2019-04-01T01:46:46.138Z,99.90
2019-04-01T01:49:14.554Z,99.90
2019-04-01T01:51:42.942Z,99.90
2019-04-01T01:54:11.352Z,99.90
2019-04-01T01:56:39.750Z,99.90
2019-04-01T01:59:08.116Z,99.90
2019-04-01T02:01:36.513Z,99.90
2019-04-01T02:04:04.955Z,99.90
2019-04-01T02:06:33.259Z,99.90
2019-04-01T02:09:01.691Z,99.90
2019-04-01T02:11:30.066Z,99.90
2019-04-01T02:13:58.464Z,99.90
2019-04-01T02:16:26.847Z,99.90
2019-04-01T02:18:55.245Z,99.90
2019-04-01T02:21:23.650Z,99.90
2019-04-01T02:23:52.066Z,99.90
2019-04-01T02:26:20.454Z,99.90
2019-04-01T02:28:48.831Z,99.90
2019-04-01T02:31:17.239Z,99.90
2019-04-01T02:33:45.622Z,99.90
2019-04-01T02:36:14.048Z,99.90
2019-04-01T02:38:42.424Z,99.90
2019-04-01T02:41:10.806Z,99.90
2019-04-01T02:43:39.209Z,99.90
2019-04-01T02:46:09.578Z,99.90
2019-04-01T02:48:37.984Z,99.90
2019-04-01T02:51:06.410Z,99.90
2019-04-01T02:53:34.791Z,99.90
2019-04-01T02:56:03.188Z,99.90
2019-04-01T02:58:31.599Z,99.90
2019-04-01T03:01:00.046Z,99.90
2019-04-01T03:03:28.423Z,99.90
2019-04-01T03:05:56.876Z,99.90
2019-04-01T03:08:25.242Z,99.90
2019-04-01T03:10:53.692Z,99.90
2019-04-01T03:13:22.064Z,99.90
2019-04-01T03:15:50.508Z,99.90
2019-04-01T03:18:18.908Z,99.90
2019-04-01T03:20:47.313Z,99.90
2019-04-01T03:23:15.679Z,99.90
2019-04-01T03:25:44.066Z,99.90
2019-04-01T03:28:12.474Z,99.90
2019-04-01T03:30:40.856Z,99.90
2019-04-01T03:33:09.241Z,99.90
2019-04-01T03:35:37.645Z,99.90
2019-04-01T03:38:06.009Z,99.90
2019-04-01T03:40:34.783Z,99.90
2019-04-01T03:43:03.161Z,99.90
2019-04-01T03:45:31.568Z,99.90
2019-04-01T03:47:59.954Z,99.90
2019-04-01T03:50:28.357Z,99.90
2019-04-01T03:52:56.737Z,99.90
2019-04-01T03:55:25.116Z,99.90
2019-04-01T03:57:53.633Z,99.90
2019-04-01T04:00:22.023Z,99.90
2019-04-01T04:02:50.427Z,99.90
2019-04-01T04:05:18.766Z,99.90
2019-04-01T04:07:47.275Z,99.90
2019-04-01T04:10:15.660Z,99.90
2019-04-01T04:12:44.075Z,99.90
2019-04-01T04:15:12.478Z,99.90
2019-04-01T04:17:40.873Z,99.90
2019-04-01T04:20:09.265Z,99.90
2019-04-01T04:22:37.635Z,99.90
2019-04-01T04:25:06.785Z,99.90
2019-04-01T04:27:35.159Z,99.90
2019-04-01T04:30:05.179Z,99.90
2019-04-01T04:32:33.571Z,99.90
2019-04-01T04:35:01.960Z,99.90
2019-04-01T04:37:30.363Z,99.90
2019-04-01T04:39:58.733Z,99.90
2019-04-01T04:42:27.139Z,99.90
2019-04-01T04:44:55.572Z,99.90
2019-04-01T04:47:24.079Z,99.90
2019-04-01T04:49:52.437Z,99.90
2019-04-01T04:52:20.852Z,99.90
2019-04-01T04:54:49.211Z,99.90
2019-04-01T04:57:20.236Z,99.90
2019-04-01T04:59:47.676Z,99.90
2019-04-01T05:02:16.071Z,99.90
2019-04-01T05:04:44.479Z,99.90
2019-04-01T05:07:12.860Z,99.90
2019-04-01T05:09:41.272Z,99.90
2019-04-01T05:12:09.689Z,99.90
2019-04-01T05:14:38.232Z,99.90
2019-04-01T05:17:06.580Z,99.90
2019-04-01T05:19:35.028Z,99.90
2019-04-01T05:22:03.447Z,99.90
2019-04-01T05:24:31.850Z,99.90
2019-04-01T05:27:00.777Z,99.90
2019-04-01T05:29:30.463Z,99.90
2019-04-01T05:31:59.204Z,99.90
2019-04-01T05:34:29.092Z,99.90
2019-04-01T05:36:57.525Z,99.90
2019-04-01T05:39:25.921Z,99.90
2019-04-01T05:41:54.371Z,99.90
2019-04-01T05:44:22.806Z,99.90
2019-04-01T05:46:51.211Z,99.90
2019-04-01T05:49:19.622Z,99.90
2019-04-01T05:51:47.990Z,99.90
2019-04-01T05:54:16.390Z,99.90
2019-04-01T05:56:44.828Z,99.90
2019-04-01T05:59:13.234Z,99.90
2019-04-01T06:01:43.298Z,99.90
2019-04-01T06:04:11.700Z,99.90
2019-04-01T06:06:40.119Z,99.90
2019-04-01T06:09:08.892Z,99.90
2019-04-01T06:11:37.268Z,99.90
2019-04-01T06:14:05.735Z,99.90
2019-04-01T06:16:34.216Z,99.90
2019-04-01T06:19:05.857Z,99.90
2019-04-01T06:21:32.660Z,99.90
2019-04-01T06:24:01.067Z,99.90
2019-04-01T06:26:29.446Z,99.90
2019-04-01T06:28:57.855Z,99.90
2019-04-01T06:31:26.268Z,99.90
2019-04-01T06:33:57.622Z,99.90
2019-04-01T06:36:26.005Z,99.90
2019-04-01T06:38:54.407Z,99.90
2019-04-01T06:41:22.784Z,99.90
2019-04-01T06:43:51.200Z,99.90
2019-04-01T06:46:19.616Z,99.90
2019-04-01T06:48:48.018Z,99.90
2019-04-01T06:51:16.436Z,99.90
2019-04-01T06:53:44.825Z,99.90
2019-04-01T06:56:13.227Z,99.90
2019-04-01T06:58:41.607Z,99.90
2019-04-01T07:01:10.012Z,99.90
2019-04-01T07:03:38.427Z,99.90
2019-04-01T07:06:06.807Z,99.90
2019-04-01T07:08:35.211Z,99.90
2019-04-01T07:11:03.595Z,99.90
2019-04-01T07:13:32.000Z,99.90
2019-04-01T07:16:14.349Z,99.90
2019-04-01T07:18:30.446Z,99.90
2019-04-01T07:20:58.916Z,99.90
2019-04-01T07:23:27.315Z,99.90
2019-04-01T07:25:55.760Z,99.90
2019-04-01T07:28:24.151Z,99.90
2019-04-01T07:30:52.555Z,99.70
2019-04-01T07:33:20.941Z,99.40
2019-04-01T07:35:49.354Z,99.20
2019-04-01T07:38:17.740Z,98.80
2019-04-01T07:40:46.185Z,98.70
2019-04-01T07:43:15.235Z,98.50
2019-04-01T07:45:43.715Z,98.00
2019-04-01T07:48:12.756Z,98.10
2019-04-01T07:50:41.433Z,97.50
2019-04-01T07:53:10.093Z,97.20
2019-04-01T07:55:38.489Z,97.40
2019-04-01T07:58:06.880Z,97.20
2019-04-01T08:00:35.342Z,97.00
2019-04-01T08:03:03.731Z,96.70
2019-04-01T08:05:32.147Z,96.50
2019-04-01T08:08:00.558Z,96.20
2019-04-01T08:10:28.933Z,96.10
2019-04-01T08:12:57.312Z,95.70
2019-04-01T08:15:25.716Z,95.50
2019-04-01T08:17:54.207Z,95.50
2019-04-01T08:20:22.595Z,95.20
2019-04-01T08:22:50.984Z,95.10
2019-04-01T08:25:19.379Z,94.70
2019-04-01T08:27:47.808Z,94.70
2019-04-01T08:30:16.204Z,94.70
2019-04-01T08:32:44.611Z,94.90
2019-04-01T08:35:12.992Z,94.80
2019-04-01T08:37:41.405Z,94.70
2019-04-01T08:40:09.805Z,94.60
2019-04-01T08:42:38.219Z,94.30
2019-04-01T08:45:07.742Z,94.40
2019-04-01T08:47:36.151Z,94.30
2019-04-01T08:50:06.397Z,94.20
2019-04-01T08:52:34.882Z,94.10
2019-04-01T08:55:04.841Z,94.00
2019-04-01T08:57:33.308Z,93.80
2019-04-01T09:00:01.709Z,93.90
2019-04-01T09:02:30.093Z,94.00
2019-04-01T09:04:58.500Z,93.90
2019-04-01T09:07:26.887Z,94.00
2019-04-01T09:09:55.293Z,93.80
2019-04-01T09:12:23.836Z,93.90
2019-04-01T09:14:52.836Z,93.80
2019-04-01T09:17:21.231Z,93.70
2019-04-01T09:19:49.629Z,93.50
2019-04-01T09:22:18.012Z,93.20
2019-04-01T09:24:46.427Z,93.30
2019-04-01T09:27:14.832Z,93.10
2019-04-01T09:29:43.248Z,93.20
2019-04-01T09:32:11.656Z,93.10
2019-04-01T09:34:40.065Z,93.00
2019-04-01T09:37:08.470Z,92.70
2019-04-01T09:39:36.844Z,92.70
2019-04-01T09:42:05.260Z,92.60
2019-04-01T09:44:36.976Z,92.40
2019-04-01T09:47:03.762Z,92.20
2019-04-01T09:49:32.151Z,92.40
2019-04-01T09:52:03.728Z,92.00
2019-04-01T09:54:30.644Z,91.90
2019-04-01T09:56:59.052Z,91.70
2019-04-01T09:59:27.459Z,91.50
2019-04-01T10:01:55.856Z,91.30
2019-04-01T10:04:24.293Z,91.20
2019-04-01T10:06:52.697Z,91.10
2019-04-01T10:09:21.104Z,90.90
2019-04-01T10:11:49.509Z,90.30
2019-04-01T10:14:17.910Z,90.00
2019-04-01T10:16:46.385Z,89.50
2019-04-01T10:19:14.774Z,89.20
2019-04-01T10:21:45.309Z,88.90
2019-04-01T10:24:13.213Z,88.90
2019-04-01T10:26:41.732Z,88.70
2019-04-01T10:29:10.135Z,88.60
2019-04-01T10:31:38.634Z,88.20
2019-04-01T10:34:07.047Z,87.40
2019-04-01T10:36:35.411Z,87.20
2019-04-01T10:39:05.939Z,87.70
2019-04-01T10:41:34.320Z,86.70
2019-04-01T10:44:04.835Z,86.70
2019-04-01T10:46:32.831Z,86.60
2019-04-01T10:49:01.315Z,86.20
2019-04-01T10:51:29.672Z,85.70
2019-04-01T10:53:58.146Z,86.00
2019-04-01T10:56:26.588Z,85.30
2019-04-01T10:58:55.034Z,85.30
2019-04-01T11:01:23.458Z,84.50
2019-04-01T11:03:51.767Z,84.40
2019-04-01T11:06:20.212Z,83.60
2019-04-01T11:08:48.614Z,82.50
2019-04-01T11:11:17.018Z,82.20
2019-04-01T11:13:45.419Z,81.80
2019-04-01T11:16:13.804Z,81.20
2019-04-01T11:18:42.207Z,80.80
2019-04-01T11:21:10.700Z,80.10
2019-04-01T11:23:39.122Z,79.40
2019-04-01T11:26:07.505Z,79.00
2019-04-01T11:28:35.915Z,79.30
2019-04-01T11:31:04.322Z,78.60
2019-04-01T11:33:32.745Z,77.40
2019-04-01T11:36:01.249Z,75.50
2019-04-01T11:38:29.633Z,75.50
2019-04-01T11:40:58.045Z,75.20
2019-04-01T11:43:26.505Z,74.50
2019-04-01T11:45:54.873Z,74.40
2019-04-01T11:48:23.242Z,73.30
2019-04-01T11:50:51.658Z,73.70
2019-04-01T11:53:20.149Z,73.30
2019-04-01T11:55:48.573Z,72.10
2019-04-01T11:58:16.992Z,71.40
2019-04-01T12:00:45.405Z,71.00
2019-04-01T12:03:13.781Z,70.70
2019-04-01T12:05:42.174Z,70.50
2019-04-01T12:08:10.594Z,70.70
2019-04-01T12:10:38.995Z,69.50
2019-04-01T12:13:07.464Z,69.20
2019-04-01T12:15:35.866Z,68.20
2019-04-01T12:18:04.337Z,68.20
2019-04-01T12:20:32.717Z,67.40
2019-04-01T12:23:01.190Z,66.80
2019-04-01T12:25:29.655Z,66.50
2019-04-01T12:27:58.157Z,65.60
2019-04-01T12:30:26.655Z,63.30
2019-04-01T12:32:55.036Z,62.60
2019-04-01T12:35:23.438Z,61.90
2019-04-01T12:37:51.846Z,61.20
2019-04-01T12:40:39.651Z,60.60
2019-04-01T12:43:08.104Z,60.30
2019-04-01T12:45:36.740Z,59.70
2019-04-01T12:48:05.236Z,59.00
2019-04-01T12:50:33.631Z,58.70
2019-04-01T12:53:02.000Z,58.80
2019-04-01T12:55:30.503Z,58.20
2019-04-01T12:57:58.886Z,58.40
2019-04-01T13:00:29.089Z,58.30
2019-04-01T13:02:57.431Z,57.70
2019-04-01T13:05:25.875Z,57.70
2019-04-01T13:07:54.441Z,57.20
2019-04-01T13:10:22.816Z,57.10
2019-04-01T13:12:53.966Z,56.80
2019-04-01T13:15:21.329Z,56.70
2019-04-01T13:17:50.076Z,56.40
2019-04-01T13:20:18.738Z,56.50
2019-04-01T13:22:47.130Z,56.00
2019-04-01T13:25:15.571Z,56.40
2019-04-01T13:27:43.989Z,56.00
2019-04-01T13:30:12.402Z,55.70
2019-04-01T13:32:40.816Z,55.60
2019-04-01T13:35:09.246Z,55.20
2019-04-01T13:37:37.611Z,54.80
2019-04-01T13:40:06.175Z,54.80
2019-04-01T13:42:34.574Z,54.50
2019-04-01T13:45:03.154Z,54.10
2019-04-01T13:47:31.598Z,53.70
2019-04-01T13:50:00.034Z,53.60
2019-04-01T13:52:28.438Z,53.60
2019-04-01T13:54:56.860Z,53.40
2019-04-01T13:57:25.416Z,53.40
2019-04-01T13:59:53.824Z,53.10
2019-04-01T14:02:22.316Z,53.10
2019-04-01T14:04:50.733Z,53.00
2019-04-01T14:07:19.195Z,52.90
2019-04-01T14:09:47.632Z,52.90
2019-04-01T14:12:16.008Z,52.60
2019-04-01T14:14:44.483Z,52.50
2019-04-01T14:17:12.901Z,52.00
2019-04-01T14:19:41.302Z,52.00
2019-04-01T14:22:09.681Z,51.80
2019-04-01T14:24:38.093Z,51.40
2019-04-01T14:27:06.474Z,50.90
2019-04-01T14:29:36.629Z,50.60
2019-04-01T14:32:04.996Z,51.00
2019-04-01T14:34:33.381Z,51.40
2019-04-01T14:37:01.797Z,51.20
2019-04-01T14:39:33.121Z,51.00
2019-04-01T14:42:00.371Z,51.50
2019-04-01T14:44:28.734Z,51.70
2019-04-01T14:46:57.157Z,51.90
2019-04-01T14:49:25.535Z,51.40
2019-04-01T14:51:54.054Z,51.90
2019-04-01T14:54:22.450Z,51.20
2019-04-01T14:56:50.864Z,51.50
2019-04-01T14:59:19.264Z,51.10
2019-04-01T15:01:47.669Z,51.00
2019-04-01T15:04:16.072Z,51.00
2019-04-01T15:06:45.273Z,51.20
2019-04-01T15:09:14.028Z,51.30
2019-04-01T15:11:42.416Z,51.10
2019-04-01T15:14:10.831Z,50.50
2019-04-01T15:16:39.273Z,50.40
2019-04-01T15:19:07.676Z,50.30
2019-04-01T15:21:36.096Z,50.40
2019-04-01T15:24:04.474Z,50.80
2019-04-01T15:26:33.867Z,51.60
2019-04-01T15:29:02.412Z,52.50
2019-04-01T15:31:30.823Z,52.40
2019-04-01T15:33:59.259Z,52.60
2019-04-01T15:36:27.758Z,52.20
2019-04-01T15:38:56.134Z,52.30
2019-04-01T15:41:26.739Z,52.50
2019-04-01T15:43:54.642Z,52.60
2019-04-01T15:46:23.023Z,52.90
2019-04-01T15:48:51.434Z,52.90
2019-04-01T15:51:19.818Z,52.80
2019-04-01T15:53:48.237Z,53.10
2019-04-01T15:56:16.657Z,53.30
2019-04-01T15:58:45.142Z,53.70
2019-04-01T16:01:13.520Z,53.60
2019-04-01T16:03:41.949Z,53.00
2019-04-01T16:06:10.371Z,52.80
2019-04-01T16:08:38.850Z,53.10
2019-04-01T16:11:07.223Z,52.90
2019-04-01T16:13:35.632Z,53.10
2019-04-01T16:16:04.010Z,52.90
2019-04-01T16:18:32.393Z,53.20
2019-04-01T16:21:00.874Z,53.60
2019-04-01T16:23:29.259Z,54.40
2019-04-01T16:25:57.703Z,55.10
2019-04-01T16:28:26.052Z,54.40
2019-04-01T16:30:54.552Z,53.90
2019-04-01T16:33:22.942Z,53.90
2019-04-01T16:35:51.449Z,53.80
2019-04-01T16:38:19.831Z,53.60
2019-04-01T16:40:48.255Z,53.60
2019-04-01T16:43:17.277Z,53.80
2019-04-01T16:45:45.966Z,53.80
2019-04-01T16:48:14.368Z,54.10
2019-04-01T16:50:42.760Z,54.40
2019-04-01T16:53:11.167Z,54.40
2019-04-01T16:55:39.544Z,54.60
2019-04-01T16:58:07.953Z,55.00
2019-04-01T17:00:36.370Z,55.40
2019-04-01T17:03:04.757Z,55.80
2019-04-01T17:05:34.794Z,56.20
2019-04-01T17:08:03.405Z,56.40
2019-04-01T17:10:33.068Z,56.70
2019-04-01T17:13:01.681Z,56.80
2019-04-01T17:15:30.118Z,57.40
2019-04-01T17:17:58.500Z,57.60
2019-04-01T17:20:28.572Z,57.90
2019-04-01T17:22:57.064Z,58.40
2019-04-01T17:25:26.273Z,58.70
2019-04-01T17:27:55.009Z,59.20
2019-04-01T17:30:23.387Z,59.70
2019-04-01T17:32:51.821Z,60.40
2019-04-01T17:35:20.336Z,60.80
2019-04-01T17:37:48.719Z,61.50
2019-04-01T17:40:17.355Z,62.10
2019-04-01T17:42:46.607Z,62.70
2019-04-01T17:45:24.453Z,63.90
2019-04-01T17:47:52.854Z,63.50
2019-04-01T17:50:21.263Z,64.40
2019-04-01T17:52:49.658Z,65.20
2019-04-01T17:55:18.060Z,66.00
2019-04-01T17:57:46.580Z,66.70
2019-04-01T18:00:17.369Z,67.30
2019-04-01T18:02:45.770Z,67.90
2019-04-01T18:05:17.154Z,68.30
2019-04-01T18:07:45.567Z,68.80
2019-04-01T18:10:13.963Z,69.50
2019-04-01T18:12:42.343Z,70.30
2019-04-01T18:15:12.134Z,70.80
2019-04-01T18:17:41.265Z,71.40
2019-04-01T18:20:10.478Z,72.30
2019-04-01T18:22:38.901Z,73.10
2019-04-01T18:25:07.285Z,73.60
2019-04-01T18:27:35.794Z,74.30
2019-04-01T18:30:06.790Z,75.20
2019-04-01T18:32:35.128Z,76.00
2019-04-01T18:35:04.771Z,76.50
2019-04-01T18:37:35.123Z,77.20
2019-04-01T18:40:04.889Z,77.80
2019-04-01T18:42:33.328Z,78.70
2019-04-01T18:45:03.489Z,79.10
2019-04-01T18:47:31.855Z,80.60
2019-04-01T18:50:00.290Z,80.40
2019-04-01T18:52:28.686Z,81.00
2019-04-01T18:54:57.088Z,81.60
2019-04-01T18:57:27.096Z,82.20
2019-04-01T18:59:55.601Z,82.60
2019-04-01T19:02:24.148Z,82.60
2019-04-01T19:04:52.533Z,82.80
2019-04-01T19:07:21.987Z,82.80
2019-04-01T19:09:50.606Z,83.10
2019-04-01T19:12:18.979Z,83.60
2019-04-01T19:14:47.410Z,83.70
2019-04-01T19:17:15.788Z,83.80
2019-04-01T19:19:44.197Z,84.20
2019-04-01T19:22:12.581Z,84.40
2019-04-01T19:24:40.991Z,84.90
2019-04-01T19:27:09.439Z,86.10
2019-04-01T19:29:42.656Z,85.70
2019-04-01T19:32:09.768Z,86.10
2019-04-01T19:34:38.195Z,86.20
2019-04-01T19:37:06.646Z,86.60
2019-04-01T19:39:35.082Z,86.60
2019-04-01T19:42:03.540Z,86.50
2019-04-01T19:44:31.955Z,86.20
2019-04-01T19:47:00.357Z,86.30
2019-04-01T19:49:28.780Z,86.40
2019-04-01T19:51:58.697Z,86.20
2019-04-01T19:54:31.560Z,86.20
2019-04-01T19:57:01.491Z,86.00
2019-04-01T19:59:29.875Z,86.00
2019-04-01T20:01:59.384Z,86.10
2019-04-01T20:04:28.444Z,86.20
2019-04-01T20:06:56.870Z,86.50
2019-04-01T20:09:25.280Z,86.80
2019-04-01T20:11:53.670Z,86.80
2019-04-01T20:14:22.097Z,87.10
2019-04-01T20:16:51.028Z,87.30
2019-04-01T20:19:19.444Z,87.40
2019-04-01T20:21:47.839Z,87.60
2019-04-01T20:24:16.219Z,87.70
2019-04-01T20:26:44.623Z,88.10
2019-04-01T20:29:17.582Z,88.40
2019-04-01T20:31:46.013Z,88.40
2019-04-01T20:34:19.932Z,87.70
2019-04-01T20:36:44.463Z,88.60
2019-04-01T20:39:12.844Z,88.80
2019-04-01T20:41:41.254Z,88.90
2019-04-01T20:44:09.638Z,89.10
2019-04-01T20:46:39.108Z,89.30
2019-04-01T20:49:07.620Z,89.30
2019-04-01T20:51:36.057Z,89.30
2019-04-01T20:54:04.483Z,89.40
2019-04-01T20:56:32.904Z,89.50
2019-04-01T20:59:01.394Z,89.80
2019-04-01T21:01:29.791Z,90.00
2019-04-01T21:03:58.952Z,90.00
2019-04-01T21:06:27.617Z,90.10
2019-04-01T21:08:56.043Z,90.00
2019-04-01T21:11:24.449Z,90.10
2019-04-01T21:13:52.839Z,90.20
2019-04-01T21:16:21.258Z,90.40
2019-04-01T21:18:50.280Z,90.60
2019-04-01T21:21:18.672Z,90.70
2019-04-01T21:23:47.178Z,90.80
2019-04-01T21:26:15.557Z,90.90
2019-04-01T21:28:43.971Z,91.10
2019-04-01T21:31:12.399Z,91.20
2019-04-01T21:33:41.148Z,91.30
2019-04-01T21:36:10.542Z,91.40
2019-04-01T21:38:38.920Z,91.50
2019-04-01T21:41:07.320Z,91.70
2019-04-01T21:43:35.734Z,91.70
2019-04-01T21:46:04.140Z,91.90
2019-04-01T21:48:32.523Z,92.00
2019-04-01T21:51:00.914Z,92.50
2019-04-01T21:53:31.043Z,92.60
2019-04-01T21:55:59.344Z,92.60
2019-04-01T21:58:27.727Z,92.80
2019-04-01T22:00:57.307Z,92.80
2019-04-01T22:03:25.710Z,93.00
2019-04-01T22:05:54.092Z,93.00
2019-04-01T22:08:22.499Z,93.10
2019-04-01T22:10:50.914Z,93.10
2019-04-01T22:13:19.322Z,93.20
2019-04-01T22:15:47.710Z,93.30
2019-04-01T22:18:16.121Z,93.40
2019-04-01T22:20:44.499Z,93.50
2019-04-01T22:23:12.916Z,93.70
2019-04-01T22:25:41.290Z,93.60
2019-04-01T22:28:09.694Z,93.70
2019-04-01T22:30:38.077Z,93.80
2019-04-01T22:33:06.478Z,93.80
2019-04-01T22:35:39.093Z,93.80
2019-04-01T22:38:06.236Z,93.80
2019-04-01T22:40:34.720Z,94.00
2019-04-01T22:43:03.096Z,94.00
2019-04-01T22:45:31.507Z,94.10
2019-04-01T22:47:59.882Z,94.20
2019-04-01T22:50:28.299Z,94.30
2019-04-01T22:52:56.680Z,94.50
2019-04-01T22:55:25.109Z,94.60
2019-04-01T22:57:53.713Z,94.70
2019-04-01T23:00:22.234Z,94.80
2019-04-01T23:02:50.641Z,94.80
2019-04-01T23:05:19.071Z,94.90
2019-04-01T23:07:47.450Z,94.90
2019-04-01T23:10:15.855Z,95.00
2019-04-01T23:12:45.219Z,95.10
2019-04-01T23:15:15.363Z,95.00
2019-04-01T23:17:44.603Z,95.20
2019-04-01T23:20:13.033Z,95.30
2019-04-01T23:22:41.381Z,95.30
2019-04-01T23:25:09.795Z,95.40
2019-04-01T23:27:38.199Z,95.50
2019-04-01T23:30:08.383Z,95.50
2019-04-01T23:32:36.773Z,95.60
2019-04-01T23:35:06.308Z,95.70
2019-04-01T23:37:34.681Z,95.80
2019-04-01T23:40:03.446Z,95.90
2019-04-01T23:42:32.177Z,96.00
2019-04-01T23:45:00.591Z,96.00
2019-04-01T23:47:30.388Z,96.00
2019-04-01T23:49:58.963Z,96.10
2019-04-01T23:52:27.363Z,96.10
2019-04-01T23:54:55.784Z,96.50
2019-04-01T23:57:24.226Z,96.30
2019-04-01T23:59:53.447Z,96.40
